createdAt,value
2023-08-17T00:04:50.475Z,11.50
2023-08-17T00:11:03.129Z,9.52
2023-08-17T00:17:10.873Z,11.82
2023-08-17T00:23:17.061Z,9.68
2023-08-17T00:29:19.311Z,9.30
2023-08-17T00:35:24.778Z,9.35
2023-08-17T00:41:27.251Z,8.52
2023-08-17T00:47:33.771Z,7.95
2023-08-17T00:53:45.001Z,8.85
2023-08-17T01:00:03.149Z,11.13
2023-08-17T01:06:16.330Z,8.50
2023-08-17T01:12:29.853Z,9.70
2023-08-17T01:18:35.386Z,9.23
2023-08-17T01:24:37.890Z,11.65
2023-08-17T01:30:56.442Z,12.15
2023-08-17T01:37:10.933Z,11.02
2023-08-17T01:43:20.018Z,10.77
2023-08-17T01:49:23.964Z,11.15
2023-08-17T01:55:40.400Z,8.88
2023-08-17T02:01:50.011Z,9.15
2023-08-17T02:07:58.289Z,12.68
2023-08-17T02:14:00.969Z,13.20
2023-08-17T02:20:07.390Z,12.30
2023-08-17T02:26:09.950Z,9.95
2023-08-17T02:32:12.420Z,9.52
2023-08-17T02:38:23.981Z,12.10
2023-08-17T02:44:26.466Z,9.77
2023-08-17T02:50:37.989Z,12.68
2023-08-17T02:56:40.471Z,10.00
2023-08-17T03:02:45.032Z,12.90
2023-08-17T03:08:47.414Z,12.45
2023-08-17T03:14:51.198Z,9.95
2023-08-17T03:20:55.190Z,9.65
2023-08-17T03:27:00.023Z,10.60
2023-08-17T03:33:07.766Z,12.85
2023-08-17T03:39:15.986Z,13.27
2023-08-17T03:45:21.386Z,10.65
2023-08-17T03:51:30.197Z,10.98
2023-08-17T03:57:34.112Z,11.00
2023-08-17T04:03:52.473Z,11.47
2023-08-17T04:10:03.998Z,10.77
2023-08-17T04:16:12.003Z,9.93
2023-08-17T04:22:14.369Z,10.23
2023-08-17T04:28:25.947Z,12.20
2023-08-17T04:34:34.690Z,12.20
2023-08-17T04:40:53.205Z,13.30
2023-08-17T04:47:00.703Z,11.05
2023-08-17T04:53:08.955Z,12.38
2023-08-17T04:59:13.408Z,12.23
2023-08-17T05:05:28.018Z,13.68
2023-08-17T05:12:02.844Z,11.35
2023-08-17T05:24:50.473Z,13.60
2023-08-17T05:25:52.706Z,12.35
2023-08-17T05:32:34.396Z,13.07
2023-08-17T05:38:40.332Z,11.38
2023-08-17T05:44:56.960Z,12.18
2023-08-17T05:51:04.953Z,11.90
2023-08-17T05:57:36.004Z,10.75
2023-08-17T06:04:25.724Z,12.50
2023-08-17T06:11:17.838Z,12.70
2023-08-17T06:17:47.993Z,11.27
2023-08-17T06:24:02.356Z,11.85
2023-08-17T06:30:14.799Z,11.80
2023-08-17T06:36:36.518Z,9.80
2023-08-17T06:43:45.754Z,9.15
2023-08-17T06:49:38.246Z,8.43
2023-08-17T06:56:16.472Z,9.18
2023-08-17T07:02:51.861Z,9.05
2023-08-17T07:09:24.522Z,8.85
2023-08-17T07:15:35.292Z,8.52
2023-08-17T07:21:50.473Z,12.15
2023-08-17T07:28:02.973Z,12.93
2023-08-17T07:34:32.540Z,10.60
2023-08-17T07:40:42.375Z,9.70
2023-08-17T07:46:50.206Z,10.10
2023-08-17T07:52:54.201Z,11.15
2023-08-17T07:58:56.518Z,10.48
2023-08-17T08:04:58.988Z,9.52
2023-08-17T08:11:05.744Z,9.98
2023-08-17T08:17:07.910Z,8.77
2023-08-17T08:23:10.347Z,7.05
2023-08-17T08:29:12.837Z,6.28
2023-08-17T08:35:15.304Z,6.07
2023-08-17T08:41:22.798Z,7.03
2023-08-17T08:47:35.047Z,7.43
2023-08-17T08:54:04.879Z,7.57
2023-08-17T09:01:09.004Z,7.20
2023-08-17T09:07:08.770Z,6.68
2023-08-17T09:13:17.031Z,7.20
2023-08-17T09:19:22.885Z,5.47
2023-08-17T09:25:26.560Z,5.75
2023-08-17T09:31:33.098Z,6.72
2023-08-17T09:37:36.499Z,5.75
2023-08-17T09:43:39.016Z,6.07
2023-08-17T09:49:48.474Z,6.47
2023-08-17T09:55:50.941Z,4.57
2023-08-17T10:01:58.155Z,4.75
2023-08-17T10:08:10.143Z,4.60
2023-08-17T10:14:23.482Z,6.47
2023-08-17T10:20:35.541Z,6.50
2023-08-17T10:26:38.498Z,5.38
2023-08-17T10:33:05.777Z,4.55
2023-08-17T10:39:30.027Z,5.03
2023-08-17T10:45:41.258Z,4.03
2023-08-17T10:52:49.111Z,4.60
2023-08-17T10:59:19.612Z,4.50
2023-08-17T11:06:18.133Z,4.95
2023-08-17T11:12:34.738Z,5.53
2023-08-17T11:18:52.541Z,4.15
2023-08-17T11:24:55.760Z,4.55
2023-08-17T11:31:02.308Z,4.50
2023-08-17T11:37:08.798Z,5.80
2023-08-17T11:43:13.601Z,4.32
2023-08-17T11:49:15.716Z,5.32
2023-08-17T11:55:30.543Z,5.28
2023-08-17T12:01:46.117Z,5.40
2023-08-17T12:14:13.841Z,4.82
2023-08-17T12:20:23.365Z,4.00
2023-08-17T12:26:28.891Z,3.97
2023-08-17T12:32:31.386Z,4.28
2023-08-17T12:38:33.787Z,4.85
2023-08-17T12:44:39.486Z,4.30
2023-08-17T12:50:44.261Z,5.32
2023-08-17T12:56:46.758Z,4.40
2023-08-17T13:02:50.616Z,4.43
2023-08-17T13:08:53.131Z,4.57
2023-08-17T13:14:55.621Z,4.93
2023-08-17T13:21:00.096Z,4.65
2023-08-17T13:27:06.949Z,4.95
2023-08-17T13:33:10.842Z,5.30
2023-08-17T13:39:13.506Z,4.50
2023-08-17T13:45:18.995Z,5.30
2023-08-17T13:51:22.465Z,5.47
2023-08-17T13:57:25.937Z,5.35
2023-08-17T14:03:32.301Z,5.78
2023-08-17T14:09:34.984Z,4.43
2023-08-17T14:15:39.429Z,4.63
2023-08-17T14:21:43.977Z,4.35
2023-08-17T14:27:46.424Z,4.30
2023-08-17T14:33:52.334Z,4.05
2023-08-17T14:39:55.401Z,3.70
2023-08-17T14:46:00.941Z,3.78
2023-08-17T14:52:16.383Z,3.97
2023-08-17T14:58:20.870Z,3.42
2023-08-17T15:04:39.866Z,3.05
2023-08-17T15:10:45.098Z,3.05
2023-08-17T15:16:57.445Z,3.22
2023-08-17T15:23:00.906Z,3.00
2023-08-17T15:29:08.332Z,2.60
2023-08-17T15:35:21.043Z,2.92
2023-08-17T15:41:32.360Z,2.55
2023-08-17T15:47:37.977Z,2.20
2023-08-17T15:53:46.612Z,2.40
2023-08-17T15:59:53.259Z,2.58
2023-08-17T16:05:56.365Z,3.05
2023-08-17T16:12:15.044Z,2.45
2023-08-17T16:18:28.393Z,2.58
2023-08-17T16:24:33.863Z,2.63
2023-08-17T16:31:09.970Z,3.13
2023-08-17T16:37:16.621Z,3.45
2023-08-17T16:43:23.616Z,3.10
2023-08-17T16:49:30.764Z,5.82
2023-08-17T16:55:55.067Z,3.90
2023-08-17T17:02:17.042Z,5.15
2023-08-17T17:08:42.786Z,6.18
2023-08-17T17:14:58.123Z,6.72
2023-08-17T17:21:08.224Z,7.22
2023-08-17T17:27:13.163Z,11.40
2023-08-17T17:33:26.056Z,13.32
2023-08-17T17:39:50.129Z,15.13
2023-08-17T17:46:12.740Z,19.80
2023-08-17T17:52:27.509Z,21.73
2023-08-17T17:58:35.520Z,14.68
2023-08-17T18:04:49.200Z,6.30
2023-08-17T18:11:13.886Z,5.75
2023-08-17T18:17:55.311Z,7.57
2023-08-17T18:23:47.993Z,5.65
2023-08-17T18:30:07.867Z,5.00
2023-08-17T18:36:27.323Z,4.05
2023-08-17T18:42:42.110Z,3.80
2023-08-17T18:48:56.178Z,4.05
2023-08-17T18:55:19.692Z,3.65
2023-08-17T19:01:39.615Z,4.00
2023-08-17T19:07:50.017Z,4.22
2023-08-17T19:14:13.297Z,4.40
2023-08-17T19:20:19.723Z,5.25
2023-08-17T19:26:48.708Z,4.78
2023-08-17T19:33:17.724Z,4.30
2023-08-17T19:39:41.585Z,5.75
2023-08-17T19:46:44.716Z,5.10
2023-08-17T19:52:51.938Z,7.40
2023-08-17T19:58:57.140Z,8.65
2023-08-17T20:05:20.412Z,5.82
2023-08-17T20:12:02.318Z,5.55
2023-08-17T20:18:19.793Z,5.88
2023-08-17T20:24:39.276Z,7.72
2023-08-17T20:30:43.807Z,7.32
2023-08-17T20:37:09.019Z,7.03
2023-08-17T20:43:15.923Z,6.75
2023-08-17T20:49:30.262Z,7.15
2023-08-17T20:55:48.052Z,6.30
2023-08-17T21:01:58.516Z,6.50
2023-08-17T21:08:24.330Z,6.03
2023-08-17T21:20:54.116Z,8.07
2023-08-17T21:27:07.660Z,7.75
2023-08-17T21:33:22.697Z,8.48
2023-08-17T21:39:32.633Z,7.30
2023-08-17T21:45:35.144Z,6.35
2023-08-17T21:52:02.591Z,5.90
2023-08-17T21:58:11.284Z,5.72
2023-08-17T22:04:26.697Z,6.85
2023-08-17T22:10:32.235Z,6.07
2023-08-17T22:16:50.678Z,5.50
2023-08-17T22:22:58.736Z,5.03
2023-08-17T22:29:07.465Z,4.80
2023-08-17T22:35:34.173Z,4.60
2023-08-17T22:41:45.623Z,5.50
2023-08-17T22:47:54.160Z,5.40
2023-08-17T22:54:17.110Z,4.30
2023-08-17T23:00:27.212Z,4.22
2023-08-17T23:06:34.551Z,4.97
2023-08-17T23:12:48.633Z,5.35
2023-08-17T23:19:13.777Z,4.68
2023-08-17T23:25:19.397Z,4.90
2023-08-17T23:31:32.765Z,4.90
2023-08-17T23:37:38.498Z,4.80
2023-08-17T23:43:40.913Z,4.95
2023-08-17T23:50:02.819Z,4.80
2023-08-17T23:56:22.773Z,5.03
